createdAt,value
2023-05-11T00:02:12.553Z,36.75
2023-05-11T00:04:57.837Z,35.97
2023-05-11T00:07:43.038Z,36.22
2023-05-11T00:10:29.367Z,37.97
2023-05-11T00:13:14.744Z,37.45
2023-05-11T00:15:59.780Z,39.13
2023-05-11T00:18:45.134Z,43.83
2023-05-11T00:21:30.731Z,42.60
2023-05-11T00:24:16.061Z,41.70
2023-05-11T00:27:00.997Z,45.25
2023-05-11T00:29:46.401Z,42.05
2023-05-11T00:32:31.750Z,42.45
2023-05-11T00:35:17.122Z,41.92
2023-05-11T00:38:02.184Z,41.50
2023-05-11T00:40:48.974Z,40.55
2023-05-11T00:43:34.319Z,40.53
2023-05-11T00:46:20.512Z,37.13
2023-05-11T00:49:05.850Z,43.28
2023-05-11T00:51:51.305Z,43.85
2023-05-11T00:54:36.685Z,42.08
2023-05-11T00:57:21.759Z,43.72
2023-05-11T01:00:07.697Z,41.67
2023-05-11T01:02:53.750Z,46.65
2023-05-11T01:05:46.999Z,44.13
2023-05-11T01:08:44.830Z,39.90
2023-05-11T01:11:51.321Z,42.10
2023-05-11T01:14:45.062Z,40.65
2023-05-11T01:17:54.847Z,39.78
2023-05-11T01:20:44.120Z,40.80
2023-05-11T01:23:54.097Z,44.55
2023-05-11T01:27:05.838Z,41.92
2023-05-11T01:30:29.155Z,41.28
2023-05-11T01:33:16.181Z,38.03
2023-05-11T01:36:05.287Z,42.83
2023-05-11T01:38:51.640Z,44.13
2023-05-11T01:41:40.233Z,45.72
2023-05-11T01:44:30.440Z,46.38
2023-05-11T01:47:17.084Z,43.17
2023-05-11T01:50:06.257Z,45.72
2023-05-11T01:52:52.084Z,41.17
2023-05-11T01:55:39.789Z,38.47
2023-05-11T01:58:27.155Z,37.92
2023-05-11T02:01:15.621Z,36.72
2023-05-11T02:04:03.471Z,44.60
2023-05-11T02:06:50.887Z,40.65
2023-05-11T02:09:38.020Z,39.70
2023-05-11T02:12:25.085Z,41.80
2023-05-11T02:15:11.602Z,40.13
2023-05-11T02:17:57.609Z,37.53
2023-05-11T02:20:46.049Z,42.67
2023-05-11T02:23:33.421Z,37.28
2023-05-11T02:26:18.484Z,41.33
2023-05-11T02:29:03.855Z,43.13
2023-05-11T02:31:52.734Z,42.17
2023-05-11T02:34:43.620Z,38.50
2023-05-11T02:37:30.855Z,39.70
2023-05-11T02:40:22.618Z,40.83
2023-05-11T02:43:11.227Z,45.90
2023-05-11T02:46:01.925Z,39.65
2023-05-11T02:48:51.862Z,44.30
2023-05-11T02:51:41.173Z,44.17
2023-05-11T02:54:27.012Z,44.10
2023-05-11T02:57:12.756Z,41.80
2023-05-11T02:59:58.411Z,43.20
2023-05-11T03:02:43.455Z,43.63
2023-05-11T03:05:28.811Z,42.28
2023-05-11T03:08:14.060Z,45.95
2023-05-11T03:10:59.255Z,46.20
2023-05-11T03:13:45.626Z,47.30
2023-05-11T03:16:32.233Z,43.55
2023-05-11T03:19:17.950Z,43.78
2023-05-11T03:22:04.336Z,45.95
2023-05-11T03:24:51.274Z,47.15
2023-05-11T03:27:37.026Z,47.25
2023-05-11T03:30:23.266Z,44.15
2023-05-11T03:33:09.249Z,49.65
2023-05-11T03:35:55.186Z,46.47
2023-05-11T03:38:40.776Z,44.35
2023-05-11T03:41:27.933Z,46.97
2023-05-11T03:44:14.797Z,45.72
2023-05-11T03:47:00.931Z,45.78
2023-05-11T03:49:46.517Z,45.35
2023-05-11T03:52:31.962Z,45.88
2023-05-11T03:55:17.320Z,43.40
2023-05-11T03:58:06.733Z,44.40
2023-05-11T04:00:52.450Z,44.15
2023-05-11T04:03:52.607Z,44.10
2023-05-11T04:06:38.282Z,44.60
2023-05-11T04:09:23.634Z,45.53
2023-05-11T04:12:08.589Z,44.17
2023-05-11T04:14:53.997Z,44.47
2023-05-11T04:17:39.252Z,45.92
2023-05-11T04:20:24.533Z,45.80
2023-05-11T04:23:10.518Z,46.65
2023-05-11T04:25:56.282Z,46.70
2023-05-11T04:28:41.385Z,43.70
2023-05-11T04:31:26.869Z,43.92
2023-05-11T04:34:12.030Z,44.50
2023-05-11T04:36:57.047Z,48.08
2023-05-11T04:39:41.909Z,44.25
2023-05-11T04:42:26.712Z,49.03
2023-05-11T04:45:11.808Z,42.85
2023-05-11T04:47:56.734Z,42.67
2023-05-11T04:50:41.677Z,43.25
2023-05-11T04:53:26.494Z,45.70
2023-05-11T04:56:11.826Z,43.88
2023-05-11T04:58:57.030Z,44.78
2023-05-11T05:01:42.124Z,42.28
2023-05-11T05:04:27.421Z,40.72
2023-05-11T05:07:12.962Z,41.55
2023-05-11T05:09:58.227Z,39.53
2023-05-11T05:12:43.098Z,38.67
2023-05-11T05:15:28.387Z,39.67
2023-05-11T05:18:14.017Z,37.63
2023-05-11T05:20:59.342Z,38.63
2023-05-11T05:23:44.392Z,39.30
2023-05-11T05:26:29.853Z,39.10
2023-05-11T05:29:15.221Z,40.55
2023-05-11T05:32:00.016Z,42.40
2023-05-11T05:34:45.476Z,42.67
2023-05-11T05:37:30.749Z,55.47
2023-05-11T05:40:15.581Z,81.85
2023-05-11T05:43:00.949Z,39.25
2023-05-11T05:45:45.787Z,38.72
2023-05-11T05:48:31.130Z,39.55
2023-05-11T05:51:16.487Z,39.50
2023-05-11T05:54:01.889Z,39.00
2023-05-11T05:56:47.322Z,39.22
2023-05-11T05:59:32.596Z,39.75
2023-05-11T06:02:17.524Z,38.60
2023-05-11T06:05:02.365Z,38.10
2023-05-11T06:07:58.131Z,36.97
2023-05-11T06:10:52.956Z,38.50
2023-05-11T06:13:37.828Z,36.78
2023-05-11T06:16:22.562Z,34.22
2023-05-11T06:19:08.309Z,33.67
2023-05-11T06:21:53.507Z,34.10
2023-05-11T06:24:38.509Z,33.88
2023-05-11T06:27:23.645Z,32.10
2023-05-11T06:30:09.546Z,28.88
2023-05-11T06:32:55.068Z,25.33
2023-05-11T06:35:40.253Z,74.40
2023-05-11T06:38:25.473Z,50.42
2023-05-11T06:41:10.435Z,39.38
2023-05-11T06:43:55.846Z,29.17
2023-05-11T06:46:41.322Z,27.67
2023-05-11T06:49:26.866Z,27.52
2023-05-11T06:52:12.088Z,28.45
2023-05-11T06:54:57.543Z,28.17
2023-05-11T06:57:42.868Z,28.95
2023-05-11T07:00:28.252Z,26.63
2023-05-11T07:03:13.241Z,26.95
2023-05-11T07:05:58.373Z,25.48
2023-05-11T07:08:43.800Z,25.73
2023-05-11T07:11:30.899Z,26.50
2023-05-11T07:14:16.060Z,26.23
2023-05-11T07:17:01.059Z,24.35
2023-05-11T07:19:46.338Z,25.60
2023-05-11T07:22:31.174Z,25.20
2023-05-11T07:25:15.879Z,25.40
2023-05-11T07:28:01.295Z,24.83
2023-05-11T07:30:47.260Z,25.88
2023-05-11T07:33:32.336Z,25.77
2023-05-11T07:36:17.968Z,24.63
2023-05-11T07:39:03.396Z,25.00
2023-05-11T07:41:48.529Z,25.33
2023-05-11T07:44:33.421Z,25.42
2023-05-11T07:47:18.307Z,24.80
2023-05-11T07:50:03.972Z,25.75
2023-05-11T07:52:49.510Z,24.65
2023-05-11T07:55:34.578Z,25.60
2023-05-11T07:58:19.894Z,25.58
2023-05-11T08:01:05.331Z,24.35
2023-05-11T08:03:50.814Z,25.25
2023-05-11T08:06:35.849Z,27.20
2023-05-11T08:09:20.902Z,26.00
2023-05-11T08:12:06.392Z,27.63
2023-05-11T08:14:51.442Z,27.88
2023-05-11T08:17:36.950Z,26.85
2023-05-11T08:20:22.364Z,27.38
2023-05-11T08:23:08.865Z,36.20
2023-05-11T08:25:55.392Z,28.45
2023-05-11T08:28:40.434Z,29.33
2023-05-11T08:31:25.231Z,28.80
2023-05-11T08:34:18.676Z,28.83
2023-05-11T08:37:04.979Z,27.63
2023-05-11T08:39:50.502Z,26.67
2023-05-11T08:42:39.861Z,26.50
2023-05-11T08:45:25.871Z,26.17
2023-05-11T08:48:11.503Z,25.90
2023-05-11T08:50:56.482Z,24.65
2023-05-11T08:53:41.732Z,22.55
2023-05-11T08:56:29.650Z,22.58
2023-05-11T08:59:15.425Z,20.92
2023-05-11T09:02:00.976Z,20.20
2023-05-11T09:04:48.311Z,17.42
2023-05-11T09:07:38.730Z,17.20
2023-05-11T09:10:24.213Z,16.20
2023-05-11T09:13:09.729Z,16.15
2023-05-11T09:15:54.797Z,16.63
2023-05-11T09:18:53.656Z,15.15
2023-05-11T09:21:39.024Z,17.77
2023-05-11T09:24:24.734Z,18.20
2023-05-11T09:27:10.273Z,18.52
2023-05-11T09:29:55.537Z,50.13
2023-05-11T09:32:51.200Z,20.80
2023-05-11T09:35:36.321Z,18.08
2023-05-11T09:38:25.114Z,18.77
2023-05-11T09:41:10.876Z,18.55
2023-05-11T09:44:11.103Z,18.25
2023-05-11T09:47:14.016Z,17.50
2023-05-11T09:49:59.258Z,19.98
2023-05-11T09:52:50.902Z,19.77
2023-05-11T09:55:35.983Z,21.13
2023-05-11T09:58:21.753Z,19.27
2023-05-11T10:01:07.138Z,19.90
2023-05-11T10:03:56.369Z,19.42
2023-05-11T10:06:52.314Z,19.48
2023-05-11T10:09:38.245Z,18.92
2023-05-11T10:12:25.580Z,19.00
2023-05-11T10:15:11.302Z,18.23
2023-05-11T10:17:58.879Z,18.35
2023-05-11T10:20:47.624Z,19.55
2023-05-11T10:23:33.253Z,19.73
2023-05-11T10:26:19.103Z,19.65
2023-05-11T10:29:05.015Z,20.92
2023-05-11T10:31:51.320Z,20.50
2023-05-11T10:34:36.596Z,21.02
2023-05-11T10:37:22.445Z,22.15
2023-05-11T10:40:09.118Z,23.10
2023-05-11T10:43:22.354Z,24.83
2023-05-11T10:46:25.062Z,23.58
2023-05-11T10:49:47.818Z,22.05
2023-05-11T10:53:04.514Z,14.90
2023-05-11T10:55:56.002Z,10.55
2023-05-11T10:58:59.223Z,12.27
2023-05-11T11:01:46.386Z,10.63
2023-05-11T11:04:49.598Z,9.20
2023-05-11T11:08:00.985Z,7.88
2023-05-11T11:10:45.868Z,8.60
2023-05-11T11:13:57.857Z,8.05
2023-05-11T11:17:14.426Z,8.50
2023-05-11T11:20:04.126Z,9.05
2023-05-11T11:22:49.171Z,10.32
2023-05-11T11:25:51.944Z,9.65
2023-05-11T11:28:55.618Z,9.38
2023-05-11T11:31:41.473Z,9.40
2023-05-11T11:34:29.605Z,8.95
2023-05-11T11:37:16.365Z,9.40
2023-05-11T11:40:09.403Z,9.95
2023-05-11T11:43:10.626Z,9.20
2023-05-11T11:46:01.515Z,9.23
2023-05-11T11:48:46.831Z,10.05
2023-05-11T11:51:35.955Z,10.02
2023-05-11T11:54:37.231Z,11.55
2023-05-11T11:57:34.787Z,11.02
2023-05-11T12:00:20.964Z,10.90
2023-05-11T12:03:07.683Z,9.63
2023-05-11T12:05:58.373Z,9.30
2023-05-11T12:08:43.513Z,7.95
2023-05-11T12:11:29.595Z,8.00
2023-05-11T12:14:16.490Z,9.52
2023-05-11T12:17:03.651Z,9.95
2023-05-11T12:19:48.699Z,10.18
2023-05-11T12:22:36.576Z,10.10
2023-05-11T12:25:22.174Z,9.40
2023-05-11T12:28:07.495Z,10.30
2023-05-11T12:30:58.474Z,9.65
2023-05-11T12:33:50.156Z,8.23
2023-05-11T12:36:36.205Z,8.50
2023-05-11T12:39:26.172Z,8.45
2023-05-11T12:42:18.589Z,7.50
2023-05-11T12:45:05.545Z,7.28
2023-05-11T12:47:52.627Z,7.57
2023-05-11T12:50:42.788Z,7.32
2023-05-11T12:53:35.572Z,7.63
2023-05-11T12:56:20.894Z,7.50
2023-05-11T12:59:30.420Z,7.53
2023-05-11T13:02:20.620Z,5.22
2023-05-11T13:05:15.508Z,6.18
2023-05-11T13:08:05.194Z,5.50
2023-05-11T13:10:50.527Z,6.07
2023-05-11T13:13:35.900Z,6.70
2023-05-11T13:16:25.382Z,7.55
2023-05-11T13:19:10.422Z,7.15
2023-05-11T13:21:55.977Z,7.35
2023-05-11T13:24:41.321Z,7.65
2023-05-11T13:27:26.562Z,10.40
2023-05-11T13:30:12.153Z,8.65
2023-05-11T13:32:57.447Z,9.98
2023-05-11T13:35:44.095Z,10.55
2023-05-11T13:38:29.606Z,10.38
2023-05-11T13:41:15.066Z,10.45
2023-05-11T13:44:00.459Z,10.52
2023-05-11T13:46:45.629Z,11.35
2023-05-11T13:49:31.110Z,9.27
2023-05-11T13:52:16.664Z,9.40
2023-05-11T13:55:01.902Z,8.13
2023-05-11T13:57:46.897Z,8.07
2023-05-11T14:00:32.395Z,8.70
2023-05-11T14:03:17.634Z,9.25
2023-05-11T14:06:03.058Z,10.52
2023-05-11T14:08:48.350Z,10.68
2023-05-11T14:11:33.876Z,10.55
2023-05-11T14:14:19.562Z,10.80
2023-05-11T14:17:05.785Z,11.75
2023-05-11T14:19:50.864Z,11.38
2023-05-11T14:22:35.812Z,10.75
2023-05-11T14:25:21.356Z,10.15
2023-05-11T14:28:06.670Z,10.80
2023-05-11T14:30:51.606Z,11.32
2023-05-11T14:33:36.855Z,11.43
2023-05-11T14:36:22.701Z,12.10
2023-05-11T14:39:07.910Z,12.70
2023-05-11T14:41:53.171Z,13.27
2023-05-11T14:44:38.093Z,12.70
2023-05-11T14:47:23.085Z,13.73
2023-05-11T14:50:09.393Z,14.50
2023-05-11T14:52:54.900Z,13.40
2023-05-11T14:55:40.240Z,12.95
2023-05-11T14:58:25.601Z,13.18
2023-05-11T15:01:10.455Z,12.32
2023-05-11T15:03:56.000Z,11.13
2023-05-11T15:06:41.194Z,12.35
2023-05-11T15:09:26.602Z,12.27
2023-05-11T15:12:13.188Z,12.07
2023-05-11T15:14:58.370Z,10.43
2023-05-11T15:17:43.456Z,11.32
2023-05-11T15:20:28.970Z,10.32
2023-05-11T15:23:14.147Z,10.63
2023-05-11T15:26:00.812Z,10.05
2023-05-11T15:28:45.950Z,9.90
2023-05-11T15:31:31.002Z,9.23
2023-05-11T15:34:16.145Z,9.02
2023-05-11T15:37:01.018Z,9.82
2023-05-11T15:39:53.599Z,9.52
2023-05-11T15:42:39.059Z,13.55
2023-05-11T15:45:25.234Z,9.10
2023-05-11T15:48:10.665Z,9.65
2023-05-11T15:50:55.671Z,8.77
2023-05-11T15:53:40.504Z,9.48
2023-05-11T15:56:25.424Z,9.25
2023-05-11T15:59:10.571Z,9.98
2023-05-11T16:01:55.917Z,9.50
2023-05-11T16:04:41.367Z,9.95
2023-05-11T16:07:27.003Z,8.95
2023-05-11T16:10:12.022Z,10.68
2023-05-11T16:12:58.801Z,10.02
2023-05-11T16:15:44.233Z,11.27
2023-05-11T16:18:29.714Z,11.68
2023-05-11T16:21:15.097Z,11.48
2023-05-11T16:24:00.538Z,11.05
2023-05-11T16:26:45.967Z,11.80
2023-05-11T16:29:31.363Z,11.50
2023-05-11T16:32:16.696Z,10.98
2023-05-11T16:35:01.634Z,12.30
2023-05-11T16:37:47.199Z,13.27
2023-05-11T16:40:32.553Z,12.90
2023-05-11T16:43:17.837Z,10.32
2023-05-11T16:46:03.584Z,10.65
2023-05-11T16:48:48.836Z,10.38
2023-05-11T16:51:33.973Z,11.10
2023-05-11T16:54:20.161Z,9.98
2023-05-11T16:57:05.735Z,9.45
2023-05-11T16:59:51.409Z,9.70
2023-05-11T17:02:36.658Z,10.90
2023-05-11T17:05:22.418Z,11.00
2023-05-11T17:08:08.244Z,12.15
2023-05-11T17:10:53.323Z,11.18
2023-05-11T17:13:38.908Z,13.68
2023-05-11T17:16:24.234Z,12.52
2023-05-11T17:19:09.712Z,12.73
2023-05-11T17:21:55.056Z,12.82
2023-05-11T17:24:40.229Z,12.75
2023-05-11T17:27:25.976Z,36.28
2023-05-11T17:30:12.429Z,13.32
2023-05-11T17:32:57.826Z,12.35
2023-05-11T17:35:43.342Z,12.73
2023-05-11T17:38:28.461Z,13.35
2023-05-11T17:41:13.889Z,13.68
2023-05-11T17:43:59.395Z,12.60
2023-05-11T17:46:44.638Z,12.98
2023-05-11T17:49:30.051Z,12.98
2023-05-11T17:52:15.850Z,13.82
2023-05-11T17:55:00.899Z,13.20
2023-05-11T17:57:46.215Z,13.88
2023-05-11T18:00:31.556Z,14.38
2023-05-11T18:03:17.151Z,15.57
2023-05-11T18:06:02.499Z,15.65
2023-05-11T18:08:47.707Z,15.57
2023-05-11T18:11:33.063Z,17.17
2023-05-11T18:14:17.984Z,17.30
2023-05-11T18:17:03.451Z,16.80
2023-05-11T18:19:48.740Z,18.08
2023-05-11T18:22:34.259Z,16.75
2023-05-11T18:25:19.394Z,18.08
2023-05-11T18:28:04.376Z,18.98
2023-05-11T18:30:49.560Z,16.63
2023-05-11T18:33:34.477Z,16.80
2023-05-11T18:36:20.249Z,17.65
2023-05-11T18:39:05.216Z,16.95
2023-05-11T18:41:50.548Z,16.50
2023-05-11T18:44:35.914Z,16.80
2023-05-11T18:47:20.889Z,18.23
2023-05-11T18:50:06.657Z,16.48
2023-05-11T18:52:52.339Z,17.60
2023-05-11T18:55:51.886Z,18.00
2023-05-11T18:58:38.414Z,19.55
2023-05-11T19:01:30.302Z,19.63
2023-05-11T19:04:18.823Z,18.33
2023-05-11T19:07:04.198Z,20.10
2023-05-11T19:09:49.634Z,19.63
2023-05-11T19:12:34.971Z,20.63
2023-05-11T19:15:19.979Z,21.27
2023-05-11T19:18:05.697Z,22.45
2023-05-11T19:20:52.148Z,23.60
2023-05-11T19:23:37.189Z,31.02
2023-05-11T19:26:22.336Z,23.00
2023-05-11T19:29:07.971Z,21.45
2023-05-11T19:31:53.496Z,21.45
2023-05-11T19:34:38.739Z,20.00
2023-05-11T19:37:24.070Z,20.48
2023-05-11T19:40:37.287Z,21.48
2023-05-11T19:43:15.005Z,20.00
2023-05-11T19:46:03.273Z,21.25
2023-05-11T19:48:48.353Z,21.67
2023-05-11T19:51:33.733Z,20.65
2023-05-11T19:54:18.932Z,21.63
2023-05-11T19:57:04.226Z,20.95
2023-05-11T19:59:49.414Z,20.50
2023-05-11T20:02:35.289Z,22.48
2023-05-11T20:05:20.774Z,21.13
2023-05-11T20:08:05.872Z,20.63
2023-05-11T20:10:51.185Z,25.42
2023-05-11T20:13:36.585Z,21.27
2023-05-11T20:16:22.083Z,20.73
2023-05-11T20:19:07.400Z,21.70
2023-05-11T20:21:52.781Z,22.40
2023-05-11T20:24:37.553Z,23.40
2023-05-11T20:27:22.679Z,24.63
2023-05-11T20:30:08.851Z,25.35
2023-05-11T20:35:42.600Z,26.52
2023-05-11T20:38:27.652Z,27.45
2023-05-11T20:41:12.655Z,26.85
2023-05-11T20:43:57.812Z,28.90
2023-05-11T20:46:43.224Z,29.50
2023-05-11T20:49:38.082Z,29.65
2023-05-11T20:52:23.749Z,30.40
2023-05-11T20:55:09.139Z,151.75
2023-05-11T20:57:54.030Z,32.70
2023-05-11T21:00:39.762Z,31.70
2023-05-11T21:03:26.095Z,31.73
2023-05-11T21:06:11.222Z,33.80
2023-05-11T21:08:56.030Z,34.08
2023-05-11T21:11:41.436Z,36.47
2023-05-11T21:14:26.811Z,36.80
2023-05-11T21:17:11.966Z,36.17
2023-05-11T21:19:57.305Z,36.92
2023-05-11T21:22:42.511Z,36.58
2023-05-11T21:25:27.529Z,38.60
2023-05-11T21:28:12.667Z,38.22
2023-05-11T21:30:58.127Z,39.67
2023-05-11T21:33:43.525Z,38.70
2023-05-11T21:36:28.403Z,40.60
2023-05-11T21:39:13.453Z,42.50
2023-05-11T21:41:58.456Z,41.05
2023-05-11T21:44:43.839Z,42.65
2023-05-11T21:47:28.978Z,41.70
2023-05-11T21:50:14.355Z,39.67
2023-05-11T21:52:59.627Z,41.92
2023-05-11T21:55:44.378Z,42.45
2023-05-11T21:58:29.795Z,44.85
2023-05-11T22:01:14.625Z,41.55
2023-05-11T22:04:00.175Z,44.85
2023-05-11T22:06:45.329Z,42.08
2023-05-11T22:09:30.078Z,43.72
2023-05-11T22:12:14.987Z,43.42
2023-05-11T22:15:00.454Z,43.03
2023-05-11T22:17:45.798Z,42.20
2023-05-11T22:20:30.963Z,43.20
2023-05-11T22:23:15.942Z,46.67
2023-05-11T22:26:01.171Z,45.85
2023-05-11T22:28:46.438Z,45.67
2023-05-11T22:31:31.839Z,43.88
2023-05-11T22:34:19.566Z,43.47
2023-05-11T22:37:04.892Z,45.22
2023-05-11T22:39:50.052Z,44.47
2023-05-11T22:42:35.651Z,45.63
2023-05-11T22:45:20.976Z,44.22
2023-05-11T22:48:06.584Z,44.85
2023-05-11T22:50:51.565Z,46.13
2023-05-11T22:53:36.419Z,45.97
2023-05-11T22:56:21.409Z,45.05
2023-05-11T22:59:06.179Z,45.97
2023-05-11T23:01:51.108Z,43.00
2023-05-11T23:04:36.450Z,42.60
2023-05-11T23:07:21.340Z,41.35
2023-05-11T23:10:06.699Z,40.95
2023-05-11T23:12:51.714Z,41.63
2023-05-11T23:15:37.190Z,43.05
2023-05-11T23:18:22.846Z,42.80
2023-05-11T23:21:08.289Z,41.38
2023-05-11T23:23:53.762Z,42.88
2023-05-11T23:26:38.798Z,40.88
2023-05-11T23:29:24.496Z,39.97
2023-05-11T23:32:09.604Z,40.92
2023-05-11T23:34:54.495Z,38.75
2023-05-11T23:37:39.316Z,38.45
2023-05-11T23:40:25.123Z,39.20
2023-05-11T23:43:10.703Z,40.40
2023-05-11T23:45:55.563Z,36.58
2023-05-11T23:48:40.975Z,37.17
2023-05-11T23:51:26.208Z,34.78
2023-05-11T23:54:11.608Z,35.53
2023-05-11T23:56:57.057Z,34.05
2023-05-11T23:59:42.428Z,34.08
